createdAt,value
2016-11-20T00:00:09.210Z,1005.39
2016-11-20T00:01:09.226Z,1005.38
2016-11-20T00:02:09.244Z,1005.42
2016-11-20T00:03:09.263Z,1005.39
2016-11-20T00:04:09.281Z,1005.39
2016-11-20T00:05:09.297Z,1005.4
2016-11-20T00:07:09.332Z,1005.42
2016-11-20T00:08:09.351Z,1005.45
2016-11-20T00:09:09.368Z,1005.47
2016-11-20T00:10:09.385Z,1005.45
2016-11-20T00:11:09.404Z,1005.5
2016-11-20T00:12:09.421Z,1005.47
2016-11-20T00:13:09.438Z,1005.55
2016-11-20T00:14:09.455Z,1005.54
2016-11-20T00:15:09.474Z,1005.54
2016-11-20T00:16:09.491Z,1005.5
2016-11-20T00:17:09.507Z,1005.55
2016-11-20T00:18:09.526Z,1005.56
2016-11-20T00:19:09.543Z,1005.49
2016-11-20T00:20:09.561Z,1005.49
2016-11-20T00:22:09.596Z,1005.44
2016-11-20T00:23:09.614Z,1005.41
2016-11-20T00:24:09.631Z,1005.45
2016-11-20T00:25:09.649Z,1005.45
2016-11-20T00:26:09.666Z,1005.45
2016-11-20T00:27:09.683Z,1005.46
2016-11-20T00:28:09.702Z,1005.47
2016-11-20T00:29:09.720Z,1005.43
2016-11-20T00:30:09.736Z,1005.49
2016-11-20T00:31:09.753Z,1005.51
2016-11-20T00:32:09.772Z,1005.49
2016-11-20T00:33:09.789Z,1005.47
2016-11-20T00:34:09.806Z,1005.49
2016-11-20T00:35:09.824Z,1005.48
2016-11-20T00:36:09.840Z,1005.52
2016-11-20T00:37:09.859Z,1005.54
2016-11-20T00:38:09.876Z,1005.52
2016-11-20T00:39:09.892Z,1005.52
2016-11-20T00:40:09.915Z,1005.52
2016-11-20T00:41:09.928Z,1005.49
2016-11-20T00:42:09.947Z,1005.55
2016-11-20T00:43:09.962Z,1005.54
2016-11-20T00:44:09.979Z,1005.5
2016-11-20T00:45:09.996Z,1005.48
2016-11-20T00:46:10.013Z,1005.53
2016-11-20T00:47:10.031Z,1005.54
2016-11-20T00:48:10.049Z,1005.54
2016-11-20T00:49:10.065Z,1005.58
2016-11-20T00:50:10.083Z,1005.57
2016-11-20T00:51:10.099Z,1005.6
2016-11-20T00:52:10.117Z,1005.59
2016-11-20T00:54:10.151Z,1005.62
2016-11-20T00:55:10.169Z,1005.61
2016-11-20T00:56:10.185Z,1005.6
2016-11-20T00:57:10.204Z,1005.63
2016-11-20T00:58:10.220Z,1005.59
2016-11-20T00:59:10.237Z,1005.59
2016-11-20T01:00:10.254Z,1005.58
2016-11-20T01:01:10.271Z,1005.58
2016-11-20T01:02:10.290Z,1005.61
2016-11-20T01:03:10.305Z,1005.61
2016-11-20T01:04:10.322Z,1005.66
2016-11-20T01:05:10.341Z,1005.65
2016-11-20T01:06:10.358Z,1005.69
2016-11-20T01:07:10.374Z,1005.76
2016-11-20T01:08:10.391Z,1005.74
2016-11-20T01:10:10.426Z,1005.75
2016-11-20T01:11:10.442Z,1005.76
2016-11-20T01:12:10.461Z,1005.78
2016-11-20T01:13:10.478Z,1005.76
2016-11-20T01:14:10.493Z,1005.73
2016-11-20T01:15:10.512Z,1005.73
2016-11-20T01:16:10.528Z,1005.76
2016-11-20T01:17:10.546Z,1005.75
2016-11-20T01:18:10.563Z,1005.75
2016-11-20T01:19:10.580Z,1005.69
2016-11-20T01:20:10.597Z,1005.71
2016-11-20T01:21:10.615Z,1005.73
2016-11-20T01:22:10.634Z,1005.74
2016-11-20T01:23:10.648Z,1005.73
2016-11-20T01:24:10.666Z,1005.75
2016-11-20T01:26:10.699Z,1005.69
2016-11-20T01:27:10.716Z,1005.71
2016-11-20T01:28:10.732Z,1005.72
2016-11-20T01:29:10.750Z,1005.72
2016-11-20T01:30:10.766Z,1005.75
2016-11-20T01:31:10.784Z,1005.77
2016-11-20T01:32:10.801Z,1005.72
2016-11-20T01:33:10.818Z,1005.74
2016-11-20T01:34:10.835Z,1005.77
2016-11-20T01:35:10.855Z,1005.8
2016-11-20T01:36:10.867Z,1005.84
2016-11-20T01:37:10.885Z,1005.84
2016-11-20T01:38:10.902Z,1005.85
2016-11-20T01:39:10.919Z,1005.83
2016-11-20T01:40:10.935Z,1005.82
2016-11-20T01:42:10.970Z,1005.81
2016-11-20T01:43:10.988Z,1005.78
2016-11-20T01:44:11.004Z,1005.82
2016-11-20T01:45:11.020Z,1005.81
2016-11-20T01:46:11.038Z,1005.84
2016-11-20T01:47:11.054Z,1005.85
2016-11-20T01:48:11.072Z,1005.83
2016-11-20T01:49:11.089Z,1005.83
2016-11-20T01:50:11.106Z,1005.85
2016-11-20T01:51:11.122Z,1005.81
2016-11-20T01:52:11.139Z,1005.82
2016-11-20T01:53:11.156Z,1005.82
2016-11-20T01:54:11.173Z,1005.79
2016-11-20T01:55:11.190Z,1005.81
2016-11-20T01:57:11.224Z,1005.78
2016-11-20T01:58:11.241Z,1005.82
2016-11-20T01:59:11.257Z,1005.78
2016-11-20T02:00:11.274Z,1005.8
2016-11-20T02:01:11.293Z,1005.81
2016-11-20T02:02:11.309Z,1005.78
2016-11-20T02:03:11.326Z,1005.76
2016-11-20T02:04:11.342Z,1005.74
2016-11-20T02:05:11.363Z,1005.77
2016-11-20T02:06:11.375Z,1005.81
2016-11-20T02:07:11.393Z,1005.81
2016-11-20T02:08:11.412Z,1005.8
2016-11-20T02:09:11.427Z,1005.77
2016-11-20T02:10:11.494Z,1005.82
2016-11-20T02:11:11.461Z,1005.81
2016-11-20T02:12:11.478Z,1005.82
2016-11-20T02:13:11.493Z,1005.8
2016-11-20T02:14:11.510Z,1005.82
2016-11-20T02:15:11.528Z,1005.79
2016-11-20T02:16:11.545Z,1005.82
2016-11-20T02:17:11.561Z,1005.79
2016-11-20T02:18:11.578Z,1005.8
2016-11-20T02:19:11.596Z,1005.79
2016-11-20T02:20:11.611Z,1005.78
2016-11-20T02:21:11.629Z,1005.74
2016-11-20T02:22:11.646Z,1005.73
2016-11-20T02:23:11.662Z,1005.69
2016-11-20T02:24:11.678Z,1005.72
2016-11-20T02:25:11.696Z,1005.76
2016-11-20T02:26:11.713Z,1005.74
2016-11-20T02:27:11.730Z,1005.73
2016-11-20T02:29:11.763Z,1005.76
2016-11-20T02:30:11.780Z,1005.78
2016-11-20T02:31:11.816Z,1005.73
2016-11-20T02:32:11.815Z,1005.71
2016-11-20T02:33:11.933Z,1005.71
2016-11-20T02:34:11.849Z,1005.7
2016-11-20T02:35:11.863Z,1005.71
2016-11-20T02:36:11.883Z,1005.71
2016-11-20T02:37:11.899Z,1005.71
2016-11-20T02:38:11.915Z,1005.72
2016-11-20T02:39:11.932Z,1005.7
2016-11-20T02:40:11.947Z,1005.69
2016-11-20T02:41:11.964Z,1005.69
2016-11-20T02:42:11.982Z,1005.72
2016-11-20T02:43:11.997Z,1005.72
2016-11-20T02:45:12.032Z,1005.65
2016-11-20T02:46:12.049Z,1005.66
2016-11-20T02:47:12.064Z,1005.66
2016-11-20T02:48:12.081Z,1005.65
2016-11-20T02:49:12.100Z,1005.63
2016-11-20T02:50:12.114Z,1005.65
2016-11-20T02:51:12.133Z,1005.68
2016-11-20T02:52:12.151Z,1005.68
2016-11-20T02:53:12.165Z,1005.66
2016-11-20T02:54:12.181Z,1005.66
2016-11-20T02:55:12.199Z,1005.68
2016-11-20T02:56:12.216Z,1005.64
2016-11-20T02:57:12.231Z,1005.65
2016-11-20T02:58:12.248Z,1005.65
2016-11-20T02:59:12.266Z,1005.63
2016-11-20T03:01:12.300Z,1005.68
2016-11-20T03:02:12.316Z,1005.62
2016-11-20T03:03:12.331Z,1005.63
2016-11-20T03:04:12.347Z,1005.63
2016-11-20T03:05:12.370Z,1005.64
2016-11-20T03:06:12.382Z,1005.64
2016-11-20T03:07:12.399Z,1005.64
2016-11-20T03:08:12.415Z,1005.7
2016-11-20T03:09:12.432Z,1005.71
2016-11-20T03:10:12.449Z,1005.74
2016-11-20T03:11:12.465Z,1005.76
2016-11-20T03:12:12.481Z,1005.77
2016-11-20T03:13:12.499Z,1005.78
2016-11-20T03:14:12.515Z,1005.77
2016-11-20T03:15:12.531Z,1005.81
2016-11-20T03:17:12.566Z,1005.82
2016-11-20T03:18:12.582Z,1005.81
2016-11-20T03:19:12.599Z,1005.8
2016-11-20T03:20:12.615Z,1005.8
2016-11-20T03:21:12.632Z,1005.75
2016-11-20T03:22:12.649Z,1005.73
2016-11-20T03:23:12.664Z,1005.73
2016-11-20T03:24:12.682Z,1005.7
2016-11-20T03:25:12.702Z,1005.68
2016-11-20T03:26:12.715Z,1005.68
2016-11-20T03:27:12.731Z,1005.67
2016-11-20T03:28:12.748Z,1005.72
2016-11-20T03:29:12.766Z,1005.65
2016-11-20T03:30:12.783Z,1005.7
2016-11-20T03:32:12.815Z,1005.61
2016-11-20T03:33:12.831Z,1005.65
2016-11-20T03:34:12.848Z,1005.6
2016-11-20T03:35:12.866Z,1005.64
2016-11-20T03:36:12.883Z,1005.59
2016-11-20T03:37:12.899Z,1005.57
2016-11-20T03:38:12.915Z,1005.54
2016-11-20T03:39:12.932Z,1005.56
2016-11-20T03:40:12.949Z,1005.59
2016-11-20T03:41:12.964Z,1005.53
2016-11-20T03:42:12.982Z,1005.57
2016-11-20T03:43:13.001Z,1005.53
2016-11-20T03:44:13.014Z,1005.56
2016-11-20T03:45:13.031Z,1005.62
2016-11-20T03:46:13.048Z,1005.62
2016-11-20T03:47:13.065Z,1005.64
2016-11-20T03:48:13.080Z,1005.64
2016-11-20T03:49:13.097Z,1005.65
2016-11-20T03:50:13.114Z,1005.6
2016-11-20T03:51:13.129Z,1005.59
2016-11-20T03:52:13.147Z,1005.61
2016-11-20T03:53:13.163Z,1005.62
2016-11-20T03:54:13.181Z,1005.6
2016-11-20T03:55:13.196Z,1005.62
2016-11-20T03:56:13.212Z,1005.67
2016-11-20T03:57:13.229Z,1005.64
2016-11-20T03:58:13.247Z,1005.62
2016-11-20T03:59:13.266Z,1005.6
2016-11-20T04:00:13.280Z,1005.6
2016-11-20T04:01:13.296Z,1005.61
2016-11-20T04:02:13.311Z,1005.61
2016-11-20T04:04:13.346Z,1005.6
2016-11-20T04:05:13.363Z,1005.61
2016-11-20T04:06:13.377Z,1005.58
2016-11-20T04:07:13.395Z,1005.56
2016-11-20T04:08:13.411Z,1005.54
2016-11-20T04:09:13.428Z,1005.59
2016-11-20T04:10:13.446Z,1005.57
2016-11-20T04:11:13.461Z,1005.57
2016-11-20T04:12:13.477Z,1005.57
2016-11-20T04:13:13.493Z,1005.52
2016-11-20T04:14:13.510Z,1005.57
2016-11-20T04:15:13.527Z,1005.57
2016-11-20T04:16:13.543Z,1005.59
2016-11-20T04:17:13.560Z,1005.6
2016-11-20T04:18:13.576Z,1005.63
2016-11-20T04:20:13.610Z,1005.68
2016-11-20T04:21:13.626Z,1005.67
2016-11-20T04:22:13.643Z,1005.64
2016-11-20T04:23:13.659Z,1005.65
2016-11-20T04:24:13.674Z,1005.62
2016-11-20T04:25:13.691Z,1005.65
2016-11-20T04:26:13.709Z,1005.67
2016-11-20T04:27:13.724Z,1005.67
2016-11-20T04:28:13.741Z,1005.68
2016-11-20T04:29:13.757Z,1005.68
2016-11-20T04:30:13.774Z,1005.73
2016-11-20T04:31:13.790Z,1005.77
2016-11-20T04:32:13.807Z,1005.81
2016-11-20T04:33:13.823Z,1005.81
2016-11-20T04:34:13.840Z,1005.81
2016-11-20T04:36:13.872Z,1005.79
2016-11-20T04:37:13.889Z,1005.76
2016-11-20T04:38:13.906Z,1005.77
2016-11-20T04:39:13.921Z,1005.81
2016-11-20T04:40:13.938Z,1005.84
2016-11-20T04:41:13.954Z,1005.77
2016-11-20T04:42:13.972Z,1005.82
2016-11-20T04:43:13.988Z,1005.79
2016-11-20T04:44:14.003Z,1005.81
2016-11-20T04:45:14.020Z,1005.84
2016-11-20T04:46:14.036Z,1005.83
2016-11-20T04:47:14.058Z,1005.88
2016-11-20T04:48:14.070Z,1005.84
2016-11-20T04:49:14.087Z,1005.85
2016-11-20T04:50:14.103Z,1005.88
2016-11-20T04:52:14.136Z,1005.82
2016-11-20T04:53:14.152Z,1005.82
2016-11-20T04:54:14.167Z,1005.81
2016-11-20T04:55:14.187Z,1005.81
2016-11-20T04:56:14.202Z,1005.8
2016-11-20T04:57:14.217Z,1005.75
2016-11-20T04:58:14.233Z,1005.78
2016-11-20T04:59:14.250Z,1005.76
2016-11-20T05:00:14.266Z,1005.75
2016-11-20T05:01:14.282Z,1005.79
2016-11-20T05:02:14.298Z,1005.78
2016-11-20T05:03:14.315Z,1005.76
2016-11-20T05:04:14.332Z,1005.76
2016-11-20T05:05:14.349Z,1005.77
2016-11-20T05:07:14.381Z,1005.74
2016-11-20T05:08:14.396Z,1005.7
2016-11-20T05:09:14.414Z,1005.67
2016-11-20T05:10:14.433Z,1005.69
2016-11-20T05:11:14.446Z,1005.69
2016-11-20T05:12:14.463Z,1005.71
2016-11-20T05:13:14.479Z,1005.7
2016-11-20T05:14:14.495Z,1005.74
2016-11-20T05:15:14.511Z,1005.66
2016-11-20T05:16:14.527Z,1005.72
2016-11-20T05:17:14.545Z,1005.67
2016-11-20T05:18:14.562Z,1005.69
2016-11-20T05:19:14.577Z,1005.7
2016-11-20T05:20:14.594Z,1005.69
2016-11-20T05:21:14.611Z,1005.76
2016-11-20T05:22:14.627Z,1005.72
2016-11-20T05:23:14.642Z,1005.7
2016-11-20T05:24:14.658Z,1005.7
2016-11-20T05:25:14.680Z,1005.74
2016-11-20T05:26:14.691Z,1005.72
2016-11-20T05:27:14.709Z,1005.71
2016-11-20T05:28:14.724Z,1005.73
2016-11-20T05:29:14.741Z,1005.72
2016-11-20T05:30:14.758Z,1005.68
2016-11-20T05:31:14.774Z,1005.61
2016-11-20T05:32:14.791Z,1005.64
2016-11-20T05:33:14.807Z,1005.61
2016-11-20T05:34:14.823Z,1005.72
2016-11-20T05:35:14.841Z,1005.68
2016-11-20T05:36:14.857Z,1005.71
2016-11-20T05:37:14.873Z,1005.73
2016-11-20T05:39:14.906Z,1005.67
2016-11-20T05:40:14.924Z,1005.66
2016-11-20T05:41:14.939Z,1005.59
2016-11-20T05:42:14.955Z,1005.56
2016-11-20T05:43:14.972Z,1005.56
2016-11-20T05:44:14.988Z,1005.56
2016-11-20T05:45:15.004Z,1005.57
2016-11-20T05:46:15.021Z,1005.55
2016-11-20T05:47:15.038Z,1005.47
2016-11-20T05:48:15.053Z,1005.53
2016-11-20T05:49:15.070Z,1005.57
2016-11-20T05:50:15.087Z,1005.55
2016-11-20T05:51:15.105Z,1005.54
2016-11-20T05:52:15.120Z,1005.53
2016-11-20T05:53:15.137Z,1005.51
2016-11-20T05:55:15.171Z,1005.48
2016-11-20T05:56:15.185Z,1005.48
2016-11-20T05:57:15.202Z,1005.46
2016-11-20T05:58:15.219Z,1005.45
2016-11-20T05:59:15.235Z,1005.39
2016-11-20T06:00:15.251Z,1005.41
2016-11-20T06:01:15.269Z,1005.4
2016-11-20T06:02:15.285Z,1005.38
2016-11-20T06:03:15.301Z,1005.34
2016-11-20T06:04:15.317Z,1005.39
2016-11-20T06:05:15.334Z,1005.41
2016-11-20T06:06:15.350Z,1005.37
2016-11-20T06:07:15.366Z,1005.41
2016-11-20T06:08:15.384Z,1005.41
2016-11-20T06:09:15.400Z,1005.45
2016-11-20T06:11:15.433Z,1005.43
2016-11-20T06:12:15.450Z,1005.42
2016-11-20T06:13:15.467Z,1005.42
2016-11-20T06:14:15.483Z,1005.44
2016-11-20T06:15:15.499Z,1005.38
2016-11-20T06:16:15.515Z,1005.4
2016-11-20T06:17:15.533Z,1005.37
2016-11-20T06:18:15.548Z,1005.28
2016-11-20T06:19:15.565Z,1005.25
2016-11-20T06:20:15.581Z,1005.22
2016-11-20T06:21:15.598Z,1005.2
2016-11-20T06:22:15.615Z,1005.16
2016-11-20T06:23:15.631Z,1005.16
2016-11-20T06:24:15.647Z,1005.08
2016-11-20T06:25:15.663Z,1005.1
2016-11-20T06:27:15.696Z,1005.07
2016-11-20T06:28:15.713Z,1005.07
2016-11-20T06:29:15.728Z,1005.03
2016-11-20T06:30:15.746Z,1005.07
2016-11-20T06:31:15.762Z,1005.05
2016-11-20T06:32:15.778Z,1005.11
2016-11-20T06:33:15.793Z,1005.11
2016-11-20T06:34:15.810Z,1005.16
2016-11-20T06:35:15.826Z,1005.15
2016-11-20T06:36:15.843Z,1005.18
2016-11-20T06:37:15.859Z,1005.18
2016-11-20T06:38:15.875Z,1005.17
2016-11-20T06:39:15.892Z,1005.13
2016-11-20T06:40:15.908Z,1005.11
2016-11-20T06:42:15.943Z,1005.03
2016-11-20T06:43:15.957Z,1005.09
2016-11-20T06:44:15.974Z,1005.03
2016-11-20T06:45:16.041Z,1005.03
2016-11-20T06:46:16.007Z,1005.02
2016-11-20T06:47:16.022Z,1005.02
2016-11-20T06:48:16.039Z,1005.07
2016-11-20T06:49:16.055Z,1005.07
2016-11-20T06:50:16.071Z,1005.1
2016-11-20T06:51:16.088Z,1005.13
2016-11-20T06:52:16.104Z,1005.12
2016-11-20T06:53:16.122Z,1005.13
2016-11-20T06:54:16.136Z,1005.08
2016-11-20T06:55:16.154Z,1005.06
2016-11-20T06:56:16.170Z,1005.03
2016-11-20T06:57:16.187Z,1005.03
2016-11-20T06:58:16.201Z,1005.04
2016-11-20T06:59:16.218Z,1005.02
2016-11-20T07:00:16.237Z,1005.02
2016-11-20T07:01:16.251Z,1005.02
2016-11-20T07:02:16.267Z,1005
2016-11-20T07:03:16.289Z,1005.03
2016-11-20T07:04:16.301Z,1005.06
2016-11-20T07:05:16.316Z,1005.05
2016-11-20T07:06:16.331Z,1005.09
2016-11-20T07:07:16.349Z,1005.11
2016-11-20T07:08:16.366Z,1005.13
2016-11-20T07:09:16.381Z,1005.15
2016-11-20T07:10:16.403Z,1005.18
2016-11-20T07:11:16.414Z,1005.16
2016-11-20T07:12:16.430Z,1005.19
2016-11-20T07:14:16.463Z,1005.21
2016-11-20T07:15:16.480Z,1005.21
2016-11-20T07:16:16.495Z,1005.11
2016-11-20T07:17:16.512Z,1005.11
2016-11-20T07:18:16.528Z,1005.03
2016-11-20T07:19:16.545Z,1004.99
2016-11-20T07:20:16.562Z,1004.91
2016-11-20T07:21:16.579Z,1004.94
2016-11-20T07:22:16.594Z,1004.93
2016-11-20T07:23:16.611Z,1004.97
2016-11-20T07:24:16.628Z,1004.93
2016-11-20T07:25:16.643Z,1004.9
2016-11-20T07:26:16.661Z,1004.84
2016-11-20T07:27:16.677Z,1004.84
2016-11-20T07:28:16.693Z,1004.84
2016-11-20T07:30:16.726Z,1004.86
2016-11-20T07:31:16.743Z,1004.86
2016-11-20T07:32:16.760Z,1004.86
2016-11-20T07:33:16.777Z,1004.81
2016-11-20T07:34:16.792Z,1004.83
2016-11-20T07:35:16.809Z,1004.83
2016-11-20T07:36:16.826Z,1004.83
2016-11-20T07:37:16.842Z,1004.83
2016-11-20T07:38:16.858Z,1004.86
2016-11-20T07:39:16.875Z,1004.85
2016-11-20T07:40:16.891Z,1004.85
2016-11-20T07:41:16.907Z,1004.81
2016-11-20T07:42:16.923Z,1004.82
2016-11-20T07:43:16.940Z,1004.76
2016-11-20T07:44:16.958Z,1004.74
2016-11-20T07:46:16.989Z,1004.76
2016-11-20T07:47:17.006Z,1004.77
2016-11-20T07:48:17.023Z,1004.75
2016-11-20T07:49:17.040Z,1004.71
2016-11-20T07:50:17.057Z,1004.69
2016-11-20T07:51:17.072Z,1004.68
2016-11-20T07:52:17.089Z,1004.66
2016-11-20T07:53:17.105Z,1004.59
2016-11-20T07:54:17.123Z,1004.54
2016-11-20T07:55:17.139Z,1004.51
2016-11-20T07:56:17.156Z,1004.54
2016-11-20T07:57:17.173Z,1004.56
2016-11-20T07:58:17.189Z,1004.53
2016-11-20T07:59:17.207Z,1004.49
2016-11-20T08:00:17.223Z,1004.55
2016-11-20T08:02:17.256Z,1004.58
2016-11-20T08:03:17.273Z,1004.54
2016-11-20T08:04:17.290Z,1004.52
2016-11-20T08:05:17.306Z,1004.52
2016-11-20T08:06:17.325Z,1004.46
2016-11-20T08:07:17.341Z,1004.45
2016-11-20T08:08:17.357Z,1004.4
2016-11-20T08:09:17.374Z,1004.31
2016-11-20T08:10:17.392Z,1004.32
2016-11-20T08:11:17.408Z,1004.31
2016-11-20T08:12:17.425Z,1004.3
2016-11-20T08:13:17.442Z,1004.28
2016-11-20T08:14:17.459Z,1004.34
2016-11-20T08:15:17.477Z,1004.24
2016-11-20T08:17:17.511Z,1004.23
2016-11-20T08:18:17.528Z,1004.25
2016-11-20T08:19:17.544Z,1004.24
2016-11-20T08:20:17.563Z,1004.31
2016-11-20T08:21:17.581Z,1004.27
2016-11-20T08:22:17.597Z,1004.28
2016-11-20T08:23:17.614Z,1004.24
2016-11-20T08:24:17.631Z,1004.15
2016-11-20T08:25:17.648Z,1004.13
2016-11-20T08:26:17.666Z,1004.06
2016-11-20T08:27:17.684Z,1004.1
2016-11-20T08:28:17.700Z,1004.07
2016-11-20T08:29:17.717Z,1004.06
2016-11-20T08:30:17.735Z,1004.08
2016-11-20T08:31:17.753Z,1004.08
2016-11-20T08:32:17.769Z,1004.01
2016-11-20T08:33:17.786Z,1004.04
2016-11-20T08:34:17.804Z,1004.03
2016-11-20T08:35:17.822Z,1003.93
2016-11-20T08:36:17.839Z,1003.86
2016-11-20T08:37:17.857Z,1003.85
2016-11-20T08:38:17.875Z,1003.81
2016-11-20T08:39:17.892Z,1003.83
2016-11-20T08:40:17.909Z,1003.79
2016-11-20T08:41:17.927Z,1003.7
2016-11-20T08:42:17.943Z,1003.78
2016-11-20T08:43:17.961Z,1003.79
2016-11-20T08:44:17.979Z,1003.73
2016-11-20T08:45:17.996Z,1003.78
2016-11-20T08:46:18.015Z,1003.75
2016-11-20T08:47:18.032Z,1003.81
2016-11-20T08:49:18.067Z,1003.77
2016-11-20T08:50:18.086Z,1003.73
2016-11-20T08:51:18.102Z,1003.61
2016-11-20T08:52:18.120Z,1003.63
2016-11-20T08:53:18.139Z,1003.56
2016-11-20T08:54:18.156Z,1003.45
2016-11-20T08:55:18.174Z,1003.43
2016-11-20T08:56:18.193Z,1003.48
2016-11-20T08:57:18.211Z,1003.47
2016-11-20T08:58:18.228Z,1003.63
2016-11-20T08:59:18.246Z,1003.67
2016-11-20T09:00:18.264Z,1003.64
2016-11-20T09:01:18.281Z,1003.63
2016-11-20T09:02:18.298Z,1003.68
2016-11-20T09:03:18.317Z,1003.69
2016-11-20T09:05:18.354Z,1003.7
2016-11-20T09:06:18.371Z,1003.66
2016-11-20T09:07:18.389Z,1003.53
2016-11-20T09:08:18.408Z,1003.51
2016-11-20T09:09:18.425Z,1003.5
2016-11-20T09:10:18.443Z,1003.49
2016-11-20T09:11:18.462Z,1003.48
2016-11-20T09:12:18.480Z,1003.5
2016-11-20T09:13:18.498Z,1003.5
2016-11-20T09:14:18.516Z,1003.41
2016-11-20T09:15:18.534Z,1003.33
2016-11-20T09:16:18.553Z,1003.37
2016-11-20T09:17:18.571Z,1003.32
2016-11-20T09:18:18.589Z,1003.22
2016-11-20T09:19:18.608Z,1003.16
2016-11-20T09:21:18.644Z,1003.1
2016-11-20T09:22:18.662Z,1003.12
2016-11-20T09:23:18.681Z,1003.06
2016-11-20T09:24:18.698Z,1003.12
2016-11-20T09:25:18.717Z,1003.09
2016-11-20T09:26:18.735Z,1003.07
2016-11-20T09:27:18.754Z,1003.13
2016-11-20T09:28:18.771Z,1003.13
2016-11-20T09:29:18.791Z,1003.01
2016-11-20T09:30:18.809Z,1003.1
2016-11-20T09:31:18.829Z,1003.12
2016-11-20T09:32:18.845Z,1003.08
2016-11-20T09:33:18.863Z,1003.11
2016-11-20T09:34:18.883Z,1003.11
2016-11-20T09:35:18.901Z,1003.08
2016-11-20T09:37:18.938Z,1003.04
2016-11-20T09:38:18.957Z,1002.99
2016-11-20T09:39:18.976Z,1002.94
2016-11-20T09:40:18.995Z,1002.92
2016-11-20T09:41:19.013Z,1002.92
2016-11-20T09:42:19.031Z,1002.9
2016-11-20T09:43:19.051Z,1002.88
2016-11-20T09:44:19.071Z,1002.89
2016-11-20T09:45:19.089Z,1002.91
2016-11-20T09:46:19.107Z,1002.84
2016-11-20T09:47:19.127Z,1002.85
2016-11-20T09:48:19.146Z,1002.92
2016-11-20T09:49:19.165Z,1002.81
2016-11-20T09:50:19.183Z,1002.82
2016-11-20T09:52:19.222Z,1002.88
2016-11-20T09:53:19.239Z,1002.86
2016-11-20T09:54:19.259Z,1002.91
2016-11-20T09:55:19.279Z,1002.88
2016-11-20T09:56:19.298Z,1002.99
2016-11-20T09:57:19.315Z,1002.96
2016-11-20T09:58:19.334Z,1002.94
2016-11-20T09:59:19.354Z,1002.87
2016-11-20T10:00:19.373Z,1002.89
2016-11-20T10:01:19.392Z,1002.93
2016-11-20T10:02:19.411Z,1002.88
2016-11-20T10:03:19.430Z,1002.81
2016-11-20T10:04:19.447Z,1002.83
2016-11-20T10:05:19.466Z,1002.69
2016-11-20T10:06:19.485Z,1002.79
2016-11-20T10:07:19.504Z,1002.69
2016-11-20T10:08:19.524Z,1002.7
2016-11-20T10:09:19.543Z,1002.76
2016-11-20T10:10:19.561Z,1002.7
2016-11-20T10:11:19.581Z,1002.59
2016-11-20T10:12:19.603Z,1002.62
2016-11-20T10:13:19.620Z,1002.51
2016-11-20T10:14:19.638Z,1002.39
2016-11-20T10:15:19.656Z,1002.37
2016-11-20T10:16:19.727Z,1002.36
2016-11-20T10:17:19.696Z,1002.31
2016-11-20T10:18:19.715Z,1002.29
2016-11-20T10:19:19.733Z,1002.27
2016-11-20T10:20:19.754Z,1002.16
2016-11-20T10:21:19.772Z,1002.29
2016-11-20T10:22:19.792Z,1002.28
2016-11-20T10:24:19.830Z,1002.2
2016-11-20T10:25:19.850Z,1002.06
2016-11-20T10:26:19.867Z,1002.02
2016-11-20T10:27:19.887Z,1001.95
2016-11-20T10:28:19.906Z,1002.04
2016-11-20T10:29:19.926Z,1002.07
2016-11-20T10:30:19.943Z,1001.93
2016-11-20T10:31:19.963Z,1001.85
2016-11-20T10:32:19.983Z,1001.9
2016-11-20T10:33:20.001Z,1001.85
2016-11-20T10:34:20.021Z,1001.81
2016-11-20T10:35:20.040Z,1001.74
2016-11-20T10:36:20.059Z,1001.74
2016-11-20T10:37:20.077Z,1001.77
2016-11-20T10:38:20.097Z,1001.67
2016-11-20T10:40:20.135Z,1001.73
2016-11-20T10:41:20.152Z,1001.72
2016-11-20T10:42:20.173Z,1001.76
2016-11-20T10:43:20.192Z,1001.67
2016-11-20T10:44:20.210Z,1001.64
2016-11-20T10:45:20.229Z,1001.57
2016-11-20T10:46:20.248Z,1001.58
2016-11-20T10:47:20.268Z,1001.56
2016-11-20T10:48:20.285Z,1001.53
2016-11-20T10:49:20.305Z,1001.5
2016-11-20T10:50:20.325Z,1001.52
2016-11-20T10:51:20.344Z,1001.58
2016-11-20T10:52:20.362Z,1001.55
2016-11-20T10:53:20.383Z,1001.57
2016-11-20T10:54:20.402Z,1001.49
2016-11-20T10:56:20.439Z,1001.46
2016-11-20T10:57:20.459Z,1001.47
2016-11-20T10:58:20.479Z,1001.37
2016-11-20T10:59:20.497Z,1001.37
2016-11-20T11:00:20.516Z,1001.31
2016-11-20T11:01:20.537Z,1001.33
2016-11-20T11:02:20.556Z,1001.37
2016-11-20T11:03:20.574Z,1001.35
2016-11-20T11:04:20.595Z,1001.33
2016-11-20T11:05:20.613Z,1001.38
2016-11-20T11:06:20.632Z,1001.36
2016-11-20T11:07:20.652Z,1001.36
2016-11-20T11:08:20.672Z,1001.5
2016-11-20T11:09:20.691Z,1001.41
2016-11-20T11:10:20.711Z,1001.34
2016-11-20T11:12:20.750Z,1001.38
2016-11-20T11:13:20.770Z,1001.35
2016-11-20T11:14:20.789Z,1001.24
2016-11-20T11:15:20.810Z,1001.18
2016-11-20T11:16:20.829Z,1001.13
2016-11-20T11:17:20.848Z,1001.08
2016-11-20T11:18:20.868Z,1000.9
2016-11-20T11:19:20.888Z,1000.97
2016-11-20T11:20:20.907Z,1000.96
2016-11-20T11:21:20.927Z,1000.93
2016-11-20T11:22:20.946Z,1001.01
2016-11-20T11:23:20.967Z,1001.06
2016-11-20T11:24:20.986Z,1001.01
2016-11-20T11:25:21.009Z,1001.1
2016-11-20T11:27:21.047Z,1000.86
2016-11-20T11:28:21.067Z,1000.9
2016-11-20T11:29:21.086Z,1000.96
2016-11-20T11:30:21.108Z,1000.97
2016-11-20T11:31:21.128Z,1000.92
2016-11-20T11:32:21.146Z,1000.92
2016-11-20T11:33:21.167Z,1000.85
2016-11-20T11:34:21.187Z,1000.77
2016-11-20T11:35:21.208Z,1000.72
2016-11-20T11:36:21.227Z,1000.68
2016-11-20T11:37:21.247Z,1000.61
2016-11-20T11:38:21.268Z,1000.56
2016-11-20T11:39:21.289Z,1000.57
2016-11-20T11:40:21.307Z,1000.55
2016-11-20T11:41:21.330Z,1000.58
2016-11-20T11:42:21.348Z,1000.55
2016-11-20T11:43:21.367Z,1000.49
2016-11-20T11:44:21.387Z,1000.4
2016-11-20T11:45:21.408Z,1000.35
2016-11-20T11:46:21.427Z,1000.29
2016-11-20T11:47:21.449Z,1000.27
2016-11-20T11:48:21.468Z,1000.22
2016-11-20T11:49:21.490Z,1000.3
2016-11-20T11:50:21.509Z,1000.37
2016-11-20T11:51:21.530Z,1000.43
2016-11-20T11:52:21.550Z,1000.38
2016-11-20T11:53:21.570Z,1000.35
2016-11-20T11:54:21.590Z,1000.3
2016-11-20T11:55:21.611Z,1000.31
2016-11-20T11:56:21.630Z,1000.35
2016-11-20T11:57:21.649Z,1000.38
2016-11-20T11:59:21.690Z,1000.31
2016-11-20T12:00:21.713Z,1000.23
2016-11-20T12:01:21.730Z,1000.16
2016-11-20T12:02:21.750Z,1000.23
2016-11-20T12:03:21.771Z,1000.2
2016-11-20T12:04:21.792Z,1000.21
2016-11-20T12:05:21.811Z,1000.27
2016-11-20T12:06:21.831Z,1000.3
2016-11-20T12:07:21.853Z,1000.3
2016-11-20T12:08:21.873Z,1000.27
2016-11-20T12:09:21.892Z,1000.23
2016-11-20T12:10:21.912Z,1000.25
2016-11-20T12:11:21.933Z,1000.23
2016-11-20T12:12:21.952Z,1000.26
2016-11-20T12:13:21.973Z,1000.24
2016-11-20T12:15:22.016Z,1000.14
2016-11-20T12:16:22.034Z,1000.08
2016-11-20T12:17:22.054Z,1000
2016-11-20T12:18:22.075Z,999.99
2016-11-20T12:19:22.093Z,1000.05
2016-11-20T12:20:22.117Z,999.97
2016-11-20T12:21:22.135Z,999.95
2016-11-20T12:22:22.155Z,999.96
2016-11-20T12:23:22.180Z,999.91
2016-11-20T12:24:22.194Z,999.91
2016-11-20T12:25:22.216Z,999.85
2016-11-20T12:26:22.235Z,999.82
2016-11-20T12:27:22.255Z,999.76
2016-11-20T12:28:22.276Z,999.73
2016-11-20T12:29:22.295Z,999.72
2016-11-20T12:31:22.336Z,999.7
2016-11-20T12:32:22.357Z,999.64
2016-11-20T12:33:22.377Z,999.65
2016-11-20T12:34:22.396Z,999.65
2016-11-20T12:35:22.416Z,999.62
2016-11-20T12:36:22.437Z,999.62
2016-11-20T12:37:22.458Z,999.6
2016-11-20T12:38:22.476Z,999.68
2016-11-20T12:39:22.499Z,999.75
2016-11-20T12:40:22.518Z,999.72
2016-11-20T12:41:22.537Z,999.67
2016-11-20T12:42:22.558Z,999.65
2016-11-20T12:43:22.578Z,999.69
2016-11-20T12:44:22.598Z,999.66
2016-11-20T12:45:22.618Z,999.6
2016-11-20T12:47:22.659Z,999.67
2016-11-20T12:48:22.679Z,999.72
2016-11-20T12:49:22.699Z,999.68